sensor_id;sensor_type;location;lat;lon;timestamp;P1;durP1;ratioP1;P2;durP2;ratioP2
19651;SDS011;9974;52.146;14.668;2022-10-04T00:01:26;3.42;;;1.15;;
19651;SDS011;9974;52.146;14.668;2022-10-04T00:04:04;5.60;;;1.40;;
19651;SDS011;9974;52.146;14.668;2022-10-04T00:06:54;6.63;;;1.50;;
19651;SDS011;9974;52.146;14.668;2022-10-04T00:09:25;7.07;;;1.75;;
19651;SDS011;9974;52.146;14.668;2022-10-04T00:12:00;4.60;;;1.42;;
19651;SDS011;9974;52.146;14.668;2022-10-04T00:14:30;12.32;;;1.95;;
19651;SDS011;9974;52.146;14.668;2022-10-04T00:17:07;5.30;;;1.63;;
19651;SDS011;9974;52.146;14.668;2022-10-04T00:22:21;11.07;;;2.20;;
19651;SDS011;9974;52.146;14.668;2022-10-04T00:27:36;6.43;;;1.85;;
19651;SDS011;9974;52.146;14.668;2022-10-04T00:33:14;5.85;;;2.42;;
19651;SDS011;9974;52.146;14.668;2022-10-04T00:40:35;4.63;;;1.58;;
19651;SDS011;9974;52.146;14.668;2022-10-04T00:46:12;7.18;;;1.40;;
19651;SDS011;9974;52.146;14.668;2022-10-04T00:48:47;5.75;;;1.30;;
19651;SDS011;9974;52.146;14.668;2022-10-04T00:54:06;7.78;;;1.85;;
19651;SDS011;9974;52.146;14.668;2022-10-04T00:56:56;8.30;;;1.67;;
19651;SDS011;9974;52.146;14.668;2022-10-04T01:02:22;7.68;;;2.15;;
19651;SDS011;9974;52.146;14.668;2022-10-04T01:04:56;7.13;;;1.58;;
19651;SDS011;9974;52.146;14.668;2022-10-04T01:07:36;5.47;;;1.33;;
19651;SDS011;9974;52.146;14.668;2022-10-04T01:10:12;7.68;;;2.25;;
19651;SDS011;9974;52.146;14.668;2022-10-04T01:12:50;8.77;;;1.90;;
19651;SDS011;9974;52.146;14.668;2022-10-04T01:15:43;20.17;;;2.33;;
19651;SDS011;9974;52.146;14.668;2022-10-04T01:18:37;4.20;;;1.58;;
19651;SDS011;9974;52.146;14.668;2022-10-04T01:23:50;7.25;;;1.92;;
19651;SDS011;9974;52.146;14.668;2022-10-04T01:29:01;9.48;;;2.20;;
19651;SDS011;9974;52.146;14.668;2022-10-04T01:31:37;7.90;;;1.88;;
19651;SDS011;9974;52.146;14.668;2022-10-04T01:34:11;8.60;;;1.50;;
19651;SDS011;9974;52.146;14.668;2022-10-04T01:36:40;9.20;;;2.08;;
19651;SDS011;9974;52.146;14.668;2022-10-04T01:39:06;10.93;;;2.33;;
19651;SDS011;9974;52.146;14.668;2022-10-04T01:41:37;5.32;;;2.08;;
19651;SDS011;9974;52.146;14.668;2022-10-04T01:44:27;6.82;;;1.77;;
19651;SDS011;9974;52.146;14.668;2022-10-04T01:47:03;7.03;;;1.77;;
19651;SDS011;9974;52.146;14.668;2022-10-04T01:49:34;8.20;;;2.25;;
19651;SDS011;9974;52.146;14.668;2022-10-04T01:52:07;12.70;;;2.63;;
19651;SDS011;9974;52.146;14.668;2022-10-04T01:54:48;7.55;;;2.17;;
19651;SDS011;9974;52.146;14.668;2022-10-04T01:57:29;6.95;;;1.92;;
19651;SDS011;9974;52.146;14.668;2022-10-04T02:00:05;6.13;;;1.80;;
19651;SDS011;9974;52.146;14.668;2022-10-04T02:08:12;5.90;;;2.00;;
19651;SDS011;9974;52.146;14.668;2022-10-04T02:10:40;5.63;;;2.05;;
19651;SDS011;9974;52.146;14.668;2022-10-04T02:13:13;20.25;;;2.58;;
19651;SDS011;9974;52.146;14.668;2022-10-04T02:15:42;8.30;;;2.30;;
19651;SDS011;9974;52.146;14.668;2022-10-04T02:18:10;7.47;;;2.05;;
19651;SDS011;9974;52.146;14.668;2022-10-04T02:20:42;4.57;;;1.58;;
19651;SDS011;9974;52.146;14.668;2022-10-04T02:23:09;10.10;;;2.22;;
19651;SDS011;9974;52.146;14.668;2022-10-04T02:25:37;10.57;;;2.42;;
19651;SDS011;9974;52.146;14.668;2022-10-04T02:28:03;10.73;;;2.05;;
19651;SDS011;9974;52.146;14.668;2022-10-04T02:30:35;8.35;;;1.70;;
19651;SDS011;9974;52.146;14.668;2022-10-04T02:33:02;10.13;;;2.38;;
19651;SDS011;9974;52.146;14.668;2022-10-04T02:35:30;10.57;;;2.42;;
19651;SDS011;9974;52.146;14.668;2022-10-04T02:38:03;7.60;;;2.60;;
19651;SDS011;9974;52.146;14.668;2022-10-04T02:43:50;5.95;;;2.22;;
19651;SDS011;9974;52.146;14.668;2022-10-04T02:46:28;7.15;;;1.98;;
19651;SDS011;9974;52.146;14.668;2022-10-04T02:49:05;9.90;;;2.28;;
19651;SDS011;9974;52.146;14.668;2022-10-04T02:51:45;5.03;;;1.70;;
19651;SDS011;9974;52.146;14.668;2022-10-04T02:56:52;4.95;;;1.70;;
19651;SDS011;9974;52.146;14.668;2022-10-04T02:59:19;4.90;;;1.80;;
19651;SDS011;9974;52.146;14.668;2022-10-04T03:01:53;4.93;;;1.60;;
19651;SDS011;9974;52.146;14.668;2022-10-04T03:04:25;9.38;;;2.47;;
19651;SDS011;9974;52.146;14.668;2022-10-04T03:06:53;9.57;;;1.65;;
19651;SDS011;9974;52.146;14.668;2022-10-04T03:09:22;5.72;;;1.65;;
19651;SDS011;9974;52.146;14.668;2022-10-04T03:11:49;6.20;;;2.08;;
19651;SDS011;9974;52.146;14.668;2022-10-04T03:14:20;12.00;;;2.33;;
19651;SDS011;9974;52.146;14.668;2022-10-04T03:16:52;6.25;;;2.13;;
19651;SDS011;9974;52.146;14.668;2022-10-04T03:19:24;7.07;;;1.90;;
19651;SDS011;9974;52.146;14.668;2022-10-04T03:21:55;7.75;;;1.65;;
19651;SDS011;9974;52.146;14.668;2022-10-04T03:24:26;8.07;;;2.10;;
19651;SDS011;9974;52.146;14.668;2022-10-04T03:26:56;8.48;;;1.75;;
19651;SDS011;9974;52.146;14.668;2022-10-04T03:29:25;10.65;;;1.80;;
19651;SDS011;9974;52.146;14.668;2022-10-04T03:31:54;9.05;;;2.00;;
19651;SDS011;9974;52.146;14.668;2022-10-04T03:34:23;4.78;;;1.27;;
19651;SDS011;9974;52.146;14.668;2022-10-04T03:36:52;8.98;;;1.92;;
19651;SDS011;9974;52.146;14.668;2022-10-04T03:39:26;5.82;;;2.08;;
19651;SDS011;9974;52.146;14.668;2022-10-04T03:41:57;6.25;;;2.00;;
19651;SDS011;9974;52.146;14.668;2022-10-04T03:44:30;9.38;;;1.75;;
19651;SDS011;9974;52.146;14.668;2022-10-04T03:46:56;7.15;;;1.92;;
19651;SDS011;9974;52.146;14.668;2022-10-04T03:49:27;8.60;;;1.92;;
19651;SDS011;9974;52.146;14.668;2022-10-04T03:52:00;5.65;;;1.75;;
19651;SDS011;9974;52.146;14.668;2022-10-04T03:54:27;7.55;;;1.98;;
19651;SDS011;9974;52.146;14.668;2022-10-04T03:56:54;10.80;;;1.88;;
19651;SDS011;9974;52.146;14.668;2022-10-04T03:59:21;8.23;;;1.85;;
19651;SDS011;9974;52.146;14.668;2022-10-04T04:04:59;5.40;;;2.38;;
19651;SDS011;9974;52.146;14.668;2022-10-04T04:07:30;11.18;;;1.67;;
19651;SDS011;9974;52.146;14.668;2022-10-04T04:10:06;9.23;;;2.00;;
19651;SDS011;9974;52.146;14.668;2022-10-04T04:13:06;7.63;;;2.00;;
19651;SDS011;9974;52.146;14.668;2022-10-04T04:15:54;6.20;;;2.00;;
19651;SDS011;9974;52.146;14.668;2022-10-04T04:18:21;7.18;;;2.28;;
19651;SDS011;9974;52.146;14.668;2022-10-04T04:20:49;6.82;;;2.28;;
19651;SDS011;9974;52.146;14.668;2022-10-04T04:23:27;8.88;;;1.83;;
19651;SDS011;9974;52.146;14.668;2022-10-04T04:25:57;14.02;;;2.42;;
19651;SDS011;9974;52.146;14.668;2022-10-04T04:31:50;9.70;;;1.55;;
19651;SDS011;9974;52.146;14.668;2022-10-04T04:34:27;6.95;;;2.45;;
19651;SDS011;9974;52.146;14.668;2022-10-04T04:37:00;8.82;;;1.88;;
19651;SDS011;9974;52.146;14.668;2022-10-04T04:39:28;9.82;;;1.70;;
19651;SDS011;9974;52.146;14.668;2022-10-04T04:41:58;8.10;;;2.42;;
19651;SDS011;9974;52.146;14.668;2022-10-04T04:44:49;7.07;;;1.33;;
19651;SDS011;9974;52.146;14.668;2022-10-04T04:47:34;5.80;;;1.85;;
19651;SDS011;9974;52.146;14.668;2022-10-04T04:50:07;7.80;;;2.05;;
19651;SDS011;9974;52.146;14.668;2022-10-04T04:52:42;11.35;;;1.83;;
19651;SDS011;9974;52.146;14.668;2022-10-04T04:55:22;10.52;;;1.70;;
19651;SDS011;9974;52.146;14.668;2022-10-04T04:57:52;8.07;;;1.60;;
19651;SDS011;9974;52.146;14.668;2022-10-04T05:00:21;7.70;;;1.73;;
19651;SDS011;9974;52.146;14.668;2022-10-04T05:02:54;10.75;;;2.22;;
19651;SDS011;9974;52.146;14.668;2022-10-04T05:05:23;8.13;;;2.50;;
19651;SDS011;9974;52.146;14.668;2022-10-04T05:08:02;6.47;;;2.00;;
19651;SDS011;9974;52.146;14.668;2022-10-04T05:10:34;9.30;;;2.78;;
19651;SDS011;9974;52.146;14.668;2022-10-04T05:13:00;5.22;;;1.92;;
19651;SDS011;9974;52.146;14.668;2022-10-04T05:15:30;7.97;;;2.30;;
19651;SDS011;9974;52.146;14.668;2022-10-04T05:18:45;9.35;;;2.67;;
19651;SDS011;9974;52.146;14.668;2022-10-04T05:20:55;8.15;;;2.03;;
19651;SDS011;9974;52.146;14.668;2022-10-04T05:23:27;5.82;;;1.70;;
19651;SDS011;9974;52.146;14.668;2022-10-04T05:25:53;5.22;;;1.92;;
19651;SDS011;9974;52.146;14.668;2022-10-04T05:28:19;7.47;;;1.73;;
19651;SDS011;9974;52.146;14.668;2022-10-04T05:30:52;5.30;;;1.70;;
19651;SDS011;9974;52.146;14.668;2022-10-04T05:33:37;10.07;;;2.08;;
19651;SDS011;9974;52.146;14.668;2022-10-04T05:39:21;15.40;;;4.00;;
19651;SDS011;9974;52.146;14.668;2022-10-04T05:42:03;53.22;;;31.95;;
19651;SDS011;9974;52.146;14.668;2022-10-04T05:45:13;11.35;;;6.13;;
19651;SDS011;9974;52.146;14.668;2022-10-04T05:47:53;18.35;;;9.63;;
19651;SDS011;9974;52.146;14.668;2022-10-04T05:50:29;17.27;;;9.70;;
19651;SDS011;9974;52.146;14.668;2022-10-04T05:53:12;84.97;;;52.50;;
19651;SDS011;9974;52.146;14.668;2022-10-04T05:59:05;29.38;;;16.40;;
19651;SDS011;9974;52.146;14.668;2022-10-04T06:02:03;70.10;;;39.22;;
19651;SDS011;9974;52.146;14.668;2022-10-04T06:07:56;42.45;;;24.38;;
19651;SDS011;9974;52.146;14.668;2022-10-04T06:10:42;108.65;;;61.55;;
19651;SDS011;9974;52.146;14.668;2022-10-04T06:19:28;74.18;;;39.58;;
19651;SDS011;9974;52.146;14.668;2022-10-04T06:22:41;182.27;;;93.85;;
19651;SDS011;9974;52.146;14.668;2022-10-04T06:25:11;209.10;;;114.88;;
19651;SDS011;9974;52.146;14.668;2022-10-04T06:28:18;42.90;;;33.60;;
19651;SDS011;9974;52.146;14.668;2022-10-04T06:30:59;129.48;;;118.53;;
19651;SDS011;9974;52.146;14.668;2022-10-04T06:33:56;47.75;;;43.50;;
19651;SDS011;9974;52.146;14.668;2022-10-04T06:43:00;11.70;;;3.08;;
19651;SDS011;9974;52.146;14.668;2022-10-04T06:48:39;16.67;;;9.85;;
19651;SDS011;9974;52.146;14.668;2022-10-04T06:52:13;12.75;;;7.03;;
19651;SDS011;9974;52.146;14.668;2022-10-04T06:55:35;14.63;;;10.80;;
19651;SDS011;9974;52.146;14.668;2022-10-04T06:58:53;11.20;;;5.88;;
19651;SDS011;9974;52.146;14.668;2022-10-04T07:01:55;7.53;;;3.05;;
19651;SDS011;9974;52.146;14.668;2022-10-04T07:04:41;34.85;;;24.70;;
19651;SDS011;9974;52.146;14.668;2022-10-04T07:07:27;73.22;;;55.63;;
19651;SDS011;9974;52.146;14.668;2022-10-04T07:10:04;106.28;;;95.97;;
19651;SDS011;9974;52.146;14.668;2022-10-04T07:12:42;22.85;;;17.13;;
19651;SDS011;9974;52.146;14.668;2022-10-04T07:15:21;15.68;;;7.10;;
19651;SDS011;9974;52.146;14.668;2022-10-04T07:17:52;8.45;;;2.28;;
19651;SDS011;9974;52.146;14.668;2022-10-04T07:20:27;10.25;;;2.55;;
19651;SDS011;9974;52.146;14.668;2022-10-04T07:22:59;4.90;;;1.98;;
19651;SDS011;9974;52.146;14.668;2022-10-04T07:25:43;7.05;;;1.95;;
19651;SDS011;9974;52.146;14.668;2022-10-04T07:28:17;6.43;;;1.83;;
19651;SDS011;9974;52.146;14.668;2022-10-04T07:31:22;8.70;;;2.25;;
19651;SDS011;9974;52.146;14.668;2022-10-04T07:33:57;11.35;;;1.98;;
19651;SDS011;9974;52.146;14.668;2022-10-04T07:39:13;8.10;;;2.05;;
19651;SDS011;9974;52.146;14.668;2022-10-04T07:41:54;9.93;;;2.67;;
19651;SDS011;9974;52.146;14.668;2022-10-04T07:44:38;7.93;;;2.55;;
19651;SDS011;9974;52.146;14.668;2022-10-04T07:47:20;5.00;;;1.85;;
19651;SDS011;9974;52.146;14.668;2022-10-04T07:49:50;7.78;;;2.42;;
19651;SDS011;9974;52.146;14.668;2022-10-04T07:55:35;5.60;;;1.90;;
19651;SDS011;9974;52.146;14.668;2022-10-04T08:01:07;10.15;;;2.10;;
19651;SDS011;9974;52.146;14.668;2022-10-04T08:04:01;6.53;;;1.92;;
19651;SDS011;9974;52.146;14.668;2022-10-04T08:12:12;9.50;;;2.00;;
19651;SDS011;9974;52.146;14.668;2022-10-04T08:14:55;3.95;;;1.42;;
19651;SDS011;9974;52.146;14.668;2022-10-04T08:18:00;7.10;;;2.03;;
19651;SDS011;9974;52.146;14.668;2022-10-04T08:20:52;7.43;;;1.58;;
19651;SDS011;9974;52.146;14.668;2022-10-04T08:52:20;41.30;;;20.05;;
19651;SDS011;9974;52.146;14.668;2022-10-04T08:58:33;7.93;;;5.60;;
19651;SDS011;9974;52.146;14.668;2022-10-04T09:04:49;9.88;;;4.78;;
19651;SDS011;9974;52.146;14.668;2022-10-04T09:07:48;11.25;;;5.22;;
19651;SDS011;9974;52.146;14.668;2022-10-04T09:13:37;7.20;;;2.70;;
19651;SDS011;9974;52.146;14.668;2022-10-04T09:16:15;4.60;;;1.92;;
19651;SDS011;9974;52.146;14.668;2022-10-04T09:24:31;5.95;;;2.53;;
19651;SDS011;9974;52.146;14.668;2022-10-04T09:30:32;7.85;;;2.25;;
19651;SDS011;9974;52.146;14.668;2022-10-04T09:45:54;8.18;;;4.70;;
19651;SDS011;9974;52.146;14.668;2022-10-04T09:55:00;7.70;;;1.92;;
19651;SDS011;9974;52.146;14.668;2022-10-04T10:00:22;10.70;;;2.85;;
19651;SDS011;9974;52.146;14.668;2022-10-04T10:06:49;4.57;;;1.50;;
19651;SDS011;9974;52.146;14.668;2022-10-04T10:09:45;8.50;;;1.92;;
19651;SDS011;9974;52.146;14.668;2022-10-04T10:16:17;7.65;;;1.73;;
19651;SDS011;9974;52.146;14.668;2022-10-04T10:19:15;4.57;;;1.63;;
19651;SDS011;9974;52.146;14.668;2022-10-04T10:28:39;10.68;;;3.47;;
19651;SDS011;9974;52.146;14.668;2022-10-04T10:31:56;28.77;;;20.70;;
19651;SDS011;9974;52.146;14.668;2022-10-04T10:40:31;7.88;;;4.00;;
19651;SDS011;9974;52.146;14.668;2022-10-04T10:43:40;7.07;;;2.40;;
19651;SDS011;9974;52.146;14.668;2022-10-04T10:46:17;7.68;;;2.50;;
19651;SDS011;9974;52.146;14.668;2022-10-04T10:51:54;9.68;;;3.05;;
19651;SDS011;9974;52.146;14.668;2022-10-04T11:01:12;14.68;;;9.45;;
19651;SDS011;9974;52.146;14.668;2022-10-04T11:06:46;9.52;;;4.65;;
19651;SDS011;9974;52.146;14.668;2022-10-04T11:13:06;26.77;;;21.13;;
19651;SDS011;9974;52.146;14.668;2022-10-04T11:15:49;19.30;;;12.13;;
19651;SDS011;9974;52.146;14.668;2022-10-04T11:19:17;10.77;;;3.67;;
19651;SDS011;9974;52.146;14.668;2022-10-04T11:30:15;11.52;;;8.20;;
19651;SDS011;9974;52.146;14.668;2022-10-04T11:41:55;11.23;;;9.20;;
19651;SDS011;9974;52.146;14.668;2022-10-04T11:45:01;24.92;;;19.48;;
19651;SDS011;9974;52.146;14.668;2022-10-04T11:48:18;8.98;;;2.60;;
19651;SDS011;9974;52.146;14.668;2022-10-04T11:54:22;7.03;;;4.20;;
19651;SDS011;9974;52.146;14.668;2022-10-04T11:57:23;6.53;;;4.03;;
19651;SDS011;9974;52.146;14.668;2022-10-04T12:06:07;7.35;;;1.88;;
19651;SDS011;9974;52.146;14.668;2022-10-04T12:14:45;6.97;;;1.88;;
19651;SDS011;9974;52.146;14.668;2022-10-04T12:20:59;3.50;;;1.20;;
19651;SDS011;9974;52.146;14.668;2022-10-04T12:33:03;4.90;;;1.15;;
19651;SDS011;9974;52.146;14.668;2022-10-04T12:36:22;7.10;;;1.70;;
19651;SDS011;9974;52.146;14.668;2022-10-04T12:39:21;6.10;;;1.77;;
19651;SDS011;9974;52.146;14.668;2022-10-04T12:42:27;5.13;;;1.30;;
19651;SDS011;9974;52.146;14.668;2022-10-04T12:45:40;2.95;;;1.15;;
19651;SDS011;9974;52.146;14.668;2022-10-04T12:51:51;3.13;;;1.27;;
19651;SDS011;9974;52.146;14.668;2022-10-04T12:54:44;4.13;;;1.27;;
19651;SDS011;9974;52.146;14.668;2022-10-04T12:57:58;3.85;;;1.42;;
19651;SDS011;9974;52.146;14.668;2022-10-04T13:00:32;4.18;;;1.50;;
19651;SDS011;9974;52.146;14.668;2022-10-04T13:06:20;3.13;;;1.60;;
19651;SDS011;9974;52.146;14.668;2022-10-04T13:09:02;7.07;;;1.20;;
19651;SDS011;9974;52.146;14.668;2022-10-04T13:11:51;4.07;;;1.20;;
19651;SDS011;9974;52.146;14.668;2022-10-04T13:14:25;3.75;;;1.20;;
19651;SDS011;9974;52.146;14.668;2022-10-04T13:20:19;4.60;;;1.55;;
19651;SDS011;9974;52.146;14.668;2022-10-04T13:23:20;4.40;;;1.52;;
19651;SDS011;9974;52.146;14.668;2022-10-04T13:32:05;5.57;;;1.38;;
19651;SDS011;9974;52.146;14.668;2022-10-04T13:34:51;3.13;;;1.13;;
19651;SDS011;9974;52.146;14.668;2022-10-04T13:37:44;4.05;;;1.27;;
19651;SDS011;9974;52.146;14.668;2022-10-04T13:52:36;4.60;;;1.30;;
19651;SDS011;9974;52.146;14.668;2022-10-04T14:05:01;5.20;;;1.48;;
19651;SDS011;9974;52.146;14.668;2022-10-04T14:13:34;4.80;;;1.60;;
19651;SDS011;9974;52.146;14.668;2022-10-04T14:16:43;5.07;;;1.77;;
19651;SDS011;9974;52.146;14.668;2022-10-04T14:29:32;3.15;;;1.15;;
19651;SDS011;9974;52.146;14.668;2022-10-04T14:32:39;5.30;;;1.38;;
19651;SDS011;9974;52.146;14.668;2022-10-04T14:35:31;4.82;;;1.30;;
19651;SDS011;9974;52.146;14.668;2022-10-04T14:38:12;4.85;;;1.23;;
19651;SDS011;9974;52.146;14.668;2022-10-04T14:59:07;1.67;;;1.00;;
19651;SDS011;9974;52.146;14.668;2022-10-04T15:01:38;5.97;;;1.17;;
19651;SDS011;9974;52.146;14.668;2022-10-04T15:10:15;5.55;;;1.55;;
19651;SDS011;9974;52.146;14.668;2022-10-04T15:13:08;2.95;;;1.20;;
19651;SDS011;9974;52.146;14.668;2022-10-04T15:16:05;4.43;;;1.80;;
19651;SDS011;9974;52.146;14.668;2022-10-04T15:18:38;5.28;;;1.50;;
19651;SDS011;9974;52.146;14.668;2022-10-04T15:26:43;4.97;;;1.73;;
19651;SDS011;9974;52.146;14.668;2022-10-04T15:32:35;2.65;;;1.40;;
19651;SDS011;9974;52.146;14.668;2022-10-04T15:39:02;3.03;;;1.42;;
19651;SDS011;9974;52.146;14.668;2022-10-04T15:44:46;2.88;;;1.48;;
19651;SDS011;9974;52.146;14.668;2022-10-04T15:47:29;3.53;;;1.58;;
19651;SDS011;9974;52.146;14.668;2022-10-04T15:53:39;6.97;;;2.20;;
19651;SDS011;9974;52.146;14.668;2022-10-04T15:56:25;2.88;;;1.45;;
19651;SDS011;9974;52.146;14.668;2022-10-04T15:59:05;7.97;;;2.22;;
19651;SDS011;9974;52.146;14.668;2022-10-04T16:02:05;4.47;;;1.75;;
19651;SDS011;9974;52.146;14.668;2022-10-04T16:05:20;3.90;;;1.65;;
19651;SDS011;9974;52.146;14.668;2022-10-04T16:08:12;11.18;;;2.45;;
19651;SDS011;9974;52.146;14.668;2022-10-04T16:20:02;4.57;;;2.17;;
19651;SDS011;9974;52.146;14.668;2022-10-04T16:25:48;7.60;;;2.53;;
19651;SDS011;9974;52.146;14.668;2022-10-04T16:28:35;5.95;;;2.38;;
19651;SDS011;9974;52.146;14.668;2022-10-04T16:31:40;6.93;;;2.75;;
19651;SDS011;9974;52.146;14.668;2022-10-04T16:34:28;4.53;;;2.22;;
19651;SDS011;9974;52.146;14.668;2022-10-04T16:39:50;4.32;;;2.08;;
19651;SDS011;9974;52.146;14.668;2022-10-04T16:47:59;6.82;;;3.70;;
19651;SDS011;9974;52.146;14.668;2022-10-04T16:51:11;11.13;;;4.90;;
19651;SDS011;9974;52.146;14.668;2022-10-04T16:53:50;8.68;;;4.45;;
19651;SDS011;9974;52.146;14.668;2022-10-04T16:57:10;8.75;;;5.53;;
19651;SDS011;9974;52.146;14.668;2022-10-04T16:59:43;17.73;;;8.43;;
19651;SDS011;9974;52.146;14.668;2022-10-04T17:05:38;7.80;;;3.75;;
19651;SDS011;9974;52.146;14.668;2022-10-04T17:13:53;6.55;;;3.35;;
19651;SDS011;9974;52.146;14.668;2022-10-04T17:16:37;7.15;;;3.92;;
19651;SDS011;9974;52.146;14.668;2022-10-04T17:22:22;7.43;;;4.15;;
19651;SDS011;9974;52.146;14.668;2022-10-04T17:25:15;8.45;;;3.65;;
19651;SDS011;9974;52.146;14.668;2022-10-04T17:27:49;7.45;;;4.03;;
19651;SDS011;9974;52.146;14.668;2022-10-04T17:31:00;6.70;;;3.58;;
19651;SDS011;9974;52.146;14.668;2022-10-04T17:33:45;10.25;;;3.97;;
19651;SDS011;9974;52.146;14.668;2022-10-04T17:36:33;10.23;;;3.30;;
19651;SDS011;9974;52.146;14.668;2022-10-04T17:39:21;13.73;;;3.30;;
19651;SDS011;9974;52.146;14.668;2022-10-04T17:41:54;7.05;;;2.85;;
19651;SDS011;9974;52.146;14.668;2022-10-04T17:45:06;10.73;;;4.18;;
19651;SDS011;9974;52.146;14.668;2022-10-04T17:50:59;14.18;;;3.83;;
19651;SDS011;9974;52.146;14.668;2022-10-04T17:53:55;7.80;;;3.88;;
19651;SDS011;9974;52.146;14.668;2022-10-04T17:59:41;6.13;;;3.42;;
19651;SDS011;9974;52.146;14.668;2022-10-04T18:07:47;9.02;;;4.53;;
19651;SDS011;9974;52.146;14.668;2022-10-04T18:10:44;6.15;;;3.70;;
19651;SDS011;9974;52.146;14.668;2022-10-04T18:22:15;7.78;;;4.93;;
19651;SDS011;9974;52.146;14.668;2022-10-04T18:24:48;10.50;;;5.88;;
19651;SDS011;9974;52.146;14.668;2022-10-04T18:27:51;7.28;;;5.45;;
19651;SDS011;9974;52.146;14.668;2022-10-04T18:39:03;9.18;;;4.28;;
19651;SDS011;9974;52.146;14.668;2022-10-04T18:41:41;6.90;;;3.92;;
19651;SDS011;9974;52.146;14.668;2022-10-04T18:44:22;10.63;;;3.95;;
19651;SDS011;9974;52.146;14.668;2022-10-04T18:46:54;5.30;;;3.50;;
19651;SDS011;9974;52.146;14.668;2022-10-04T18:49:23;8.95;;;3.75;;
19651;SDS011;9974;52.146;14.668;2022-10-04T18:54:58;7.70;;;3.17;;
19651;SDS011;9974;52.146;14.668;2022-10-04T18:57:40;5.38;;;2.88;;
19651;SDS011;9974;52.146;14.668;2022-10-04T19:00:32;7.88;;;3.38;;
19651;SDS011;9974;52.146;14.668;2022-10-04T19:03:34;6.68;;;3.03;;
19651;SDS011;9974;52.146;14.668;2022-10-04T19:06:22;5.63;;;2.63;;
19651;SDS011;9974;52.146;14.668;2022-10-04T19:09:12;6.95;;;3.50;;
19651;SDS011;9974;52.146;14.668;2022-10-04T19:11:56;6.45;;;2.85;;
19651;SDS011;9974;52.146;14.668;2022-10-04T19:14:38;7.30;;;3.00;;
19651;SDS011;9974;52.146;14.668;2022-10-04T19:22:39;5.85;;;3.55;;
19651;SDS011;9974;52.146;14.668;2022-10-04T19:28:07;5.72;;;3.53;;
19651;SDS011;9974;52.146;14.668;2022-10-04T19:30:51;7.18;;;4.22;;
19651;SDS011;9974;52.146;14.668;2022-10-04T19:33:44;6.32;;;3.58;;
19651;SDS011;9974;52.146;14.668;2022-10-04T19:36:27;7.97;;;4.13;;
19651;SDS011;9974;52.146;14.668;2022-10-04T19:42:14;13.15;;;3.65;;
19651;SDS011;9974;52.146;14.668;2022-10-04T19:47:57;6.15;;;3.47;;
19651;SDS011;9974;52.146;14.668;2022-10-04T19:50:38;4.80;;;3.40;;
19651;SDS011;9974;52.146;14.668;2022-10-04T19:53:19;6.70;;;3.40;;
19651;SDS011;9974;52.146;14.668;2022-10-04T19:55:55;7.65;;;4.35;;
19651;SDS011;9974;52.146;14.668;2022-10-04T19:58:29;7.95;;;4.05;;
19651;SDS011;9974;52.146;14.668;2022-10-04T20:01:00;8.95;;;3.95;;
19651;SDS011;9974;52.146;14.668;2022-10-04T20:03:34;9.25;;;4.18;;
19651;SDS011;9974;52.146;14.668;2022-10-04T20:06:00;6.47;;;3.67;;
19651;SDS011;9974;52.146;14.668;2022-10-04T20:11:17;11.10;;;4.97;;
19651;SDS011;9974;52.146;14.668;2022-10-04T20:21:52;13.27;;;5.10;;
19651;SDS011;9974;52.146;14.668;2022-10-04T20:35:02;7.18;;;5.05;;
19651;SDS011;9974;52.146;14.668;2022-10-04T20:45:45;7.80;;;4.32;;
19651;SDS011;9974;52.146;14.668;2022-10-04T20:48:25;5.45;;;3.75;;
19651;SDS011;9974;52.146;14.668;2022-10-04T20:50:53;8.25;;;3.75;;
19651;SDS011;9974;52.146;14.668;2022-10-04T20:56:07;6.47;;;3.85;;
19651;SDS011;9974;52.146;14.668;2022-10-04T20:58:43;5.22;;;4.00;;
19651;SDS011;9974;52.146;14.668;2022-10-04T21:01:23;9.73;;;3.97;;
19651;SDS011;9974;52.146;14.668;2022-10-04T21:07:01;6.90;;;4.07;;
19651;SDS011;9974;52.146;14.668;2022-10-04T21:09:32;6.13;;;3.83;;
19651;SDS011;9974;52.146;14.668;2022-10-04T21:12:03;9.43;;;4.15;;
19651;SDS011;9974;52.146;14.668;2022-10-04T21:14:31;9.00;;;3.60;;
19651;SDS011;9974;52.146;14.668;2022-10-04T21:17:42;7.93;;;3.67;;
19651;SDS011;9974;52.146;14.668;2022-10-04T21:19:59;8.65;;;3.95;;
19651;SDS011;9974;52.146;14.668;2022-10-04T21:24:55;7.35;;;3.38;;
19651;SDS011;9974;52.146;14.668;2022-10-04T21:29:51;8.07;;;4.28;;
19651;SDS011;9974;52.146;14.668;2022-10-04T21:32:18;9.13;;;3.95;;
19651;SDS011;9974;52.146;14.668;2022-10-04T21:34:45;5.95;;;3.25;;
19651;SDS011;9974;52.146;14.668;2022-10-04T21:37:11;7.07;;;3.80;;
19651;SDS011;9974;52.146;14.668;2022-10-04T21:39:37;7.30;;;4.07;;
19651;SDS011;9974;52.146;14.668;2022-10-04T21:42:03;6.55;;;3.95;;
19651;SDS011;9974;52.146;14.668;2022-10-04T21:44:29;8.00;;;4.13;;
19651;SDS011;9974;52.146;14.668;2022-10-04T21:46:54;7.53;;;4.43;;
19651;SDS011;9974;52.146;14.668;2022-10-04T21:49:20;8.35;;;4.53;;
19651;SDS011;9974;52.146;14.668;2022-10-04T21:51:46;8.25;;;5.13;;
19651;SDS011;9974;52.146;14.668;2022-10-04T21:54:12;7.35;;;4.38;;
19651;SDS011;9974;52.146;14.668;2022-10-04T21:56:38;9.70;;;5.68;;
19651;SDS011;9974;52.146;14.668;2022-10-04T21:59:04;9.93;;;5.30;;
19651;SDS011;9974;52.146;14.668;2022-10-04T22:01:30;14.88;;;5.85;;
19651;SDS011;9974;52.146;14.668;2022-10-04T22:03:56;10.93;;;6.03;;
19651;SDS011;9974;52.146;14.668;2022-10-04T22:06:22;7.88;;;4.95;;
19651;SDS011;9974;52.146;14.668;2022-10-04T22:08:48;8.40;;;4.45;;
19651;SDS011;9974;52.146;14.668;2022-10-04T22:11:14;9.00;;;5.00;;
19651;SDS011;9974;52.146;14.668;2022-10-04T22:13:40;9.85;;;4.47;;
19651;SDS011;9974;52.146;14.668;2022-10-04T22:16:07;5.90;;;4.32;;
19651;SDS011;9974;52.146;14.668;2022-10-04T22:18:32;10.13;;;4.90;;
19651;SDS011;9974;52.146;14.668;2022-10-04T22:20:59;10.27;;;4.47;;
19651;SDS011;9974;52.146;14.668;2022-10-04T22:23:26;5.85;;;3.83;;
19651;SDS011;9974;52.146;14.668;2022-10-04T22:25:54;7.70;;;4.22;;
19651;SDS011;9974;52.146;14.668;2022-10-04T22:28:24;9.13;;;5.50;;
19651;SDS011;9974;52.146;14.668;2022-10-04T22:30:53;7.90;;;4.57;;
19651;SDS011;9974;52.146;14.668;2022-10-04T22:33:35;7.65;;;4.63;;
19651;SDS011;9974;52.146;14.668;2022-10-04T22:36:11;8.00;;;4.45;;
19651;SDS011;9974;52.146;14.668;2022-10-04T22:39:00;7.57;;;4.53;;
19651;SDS011;9974;52.146;14.668;2022-10-04T22:41:36;8.00;;;4.45;;
19651;SDS011;9974;52.146;14.668;2022-10-04T22:44:13;7.05;;;4.13;;
19651;SDS011;9974;52.146;14.668;2022-10-04T22:46:44;8.27;;;4.95;;
19651;SDS011;9974;52.146;14.668;2022-10-04T22:49:15;8.40;;;4.78;;
19651;SDS011;9974;52.146;14.668;2022-10-04T22:51:44;6.72;;;4.55;;
19651;SDS011;9974;52.146;14.668;2022-10-04T22:54:21;8.60;;;5.40;;
19651;SDS011;9974;52.146;14.668;2022-10-04T22:56:50;9.73;;;5.65;;
19651;SDS011;9974;52.146;14.668;2022-10-04T22:59:17;8.32;;;4.45;;
19651;SDS011;9974;52.146;14.668;2022-10-04T23:01:49;8.20;;;5.07;;
19651;SDS011;9974;52.146;14.668;2022-10-04T23:04:19;9.77;;;5.35;;
19651;SDS011;9974;52.146;14.668;2022-10-04T23:06:47;8.27;;;5.10;;
19651;SDS011;9974;52.146;14.668;2022-10-04T23:09:14;7.40;;;5.10;;
19651;SDS011;9974;52.146;14.668;2022-10-04T23:11:40;9.75;;;5.68;;
19651;SDS011;9974;52.146;14.668;2022-10-04T23:14:06;8.15;;;4.90;;
19651;SDS011;9974;52.146;14.668;2022-10-04T23:16:32;11.27;;;4.72;;
19651;SDS011;9974;52.146;14.668;2022-10-04T23:19:08;8.13;;;4.22;;
19651;SDS011;9974;52.146;14.668;2022-10-04T23:21:43;9.00;;;4.97;;
19651;SDS011;9974;52.146;14.668;2022-10-04T23:24:14;9.45;;;4.30;;
19651;SDS011;9974;52.146;14.668;2022-10-04T23:26:42;6.18;;;4.30;;
19651;SDS011;9974;52.146;14.668;2022-10-04T23:29:20;8.15;;;4.32;;